sensor_id;sensor_type;location;lat;lon;timestamp;P1;durP1;ratioP1;P2;durP2;ratioP2
16326;SDS011;34812;49.846;9.610;2023-02-23T00:00:52;18.13;;;16.37;;
16326;SDS011;34812;49.846;9.610;2023-02-23T00:01:53;17.27;;;15.63;;
16326;SDS011;34812;49.846;9.610;2023-02-23T00:02:57;19.07;;;17.17;;
16326;SDS011;34812;49.846;9.610;2023-02-23T00:04:00;18.30;;;16.50;;
16326;SDS011;34812;49.846;9.610;2023-02-23T00:05:04;18.80;;;17.00;;
16326;SDS011;34812;49.846;9.610;2023-02-23T00:06:07;19.53;;;17.53;;
16326;SDS011;34812;49.846;9.610;2023-02-23T00:07:09;20.10;;;16.90;;
16326;SDS011;34812;49.846;9.610;2023-02-23T00:08:10;18.17;;;16.37;;
16326;SDS011;34812;49.846;9.610;2023-02-23T00:09:12;17.40;;;15.70;;
16326;SDS011;34812;49.846;9.610;2023-02-23T00:10:14;19.40;;;17.30;;
16326;SDS011;34812;49.846;9.610;2023-02-23T00:11:18;18.00;;;16.03;;
16326;SDS011;34812;49.846;9.610;2023-02-23T00:12:20;17.20;;;15.50;;
16326;SDS011;34812;49.846;9.610;2023-02-23T00:13:23;17.37;;;15.70;;
16326;SDS011;34812;49.846;9.610;2023-02-23T00:14:24;17.53;;;15.83;;
16326;SDS011;34812;49.846;9.610;2023-02-23T00:15:27;17.60;;;15.73;;
16326;SDS011;34812;49.846;9.610;2023-02-23T00:16:28;18.37;;;16.50;;
16326;SDS011;34812;49.846;9.610;2023-02-23T00:17:30;16.50;;;14.73;;
16326;SDS011;34812;49.846;9.610;2023-02-23T00:18:32;16.30;;;14.70;;
16326;SDS011;34812;49.846;9.610;2023-02-23T00:19:45;19.87;;;15.53;;
16326;SDS011;34812;49.846;9.610;2023-02-23T00:20:54;16.47;;;14.40;;
16326;SDS011;34812;49.846;9.610;2023-02-23T00:21:57;16.10;;;14.50;;
16326;SDS011;34812;49.846;9.610;2023-02-23T00:22:58;15.97;;;14.43;;
16326;SDS011;34812;49.846;9.610;2023-02-23T00:24:00;17.07;;;15.17;;
16326;SDS011;34812;49.846;9.610;2023-02-23T00:25:03;15.93;;;14.43;;
16326;SDS011;34812;49.846;9.610;2023-02-23T00:26:08;18.00;;;14.87;;
16326;SDS011;34812;49.846;9.610;2023-02-23T00:27:08;15.93;;;14.23;;
16326;SDS011;34812;49.846;9.610;2023-02-23T00:28:16;16.00;;;14.30;;
16326;SDS011;34812;49.846;9.610;2023-02-23T00:29:18;17.07;;;15.30;;
16326;SDS011;34812;49.846;9.610;2023-02-23T00:30:21;16.83;;;14.60;;
16326;SDS011;34812;49.846;9.610;2023-02-23T00:31:23;15.60;;;14.07;;
16326;SDS011;34812;49.846;9.610;2023-02-23T00:32:26;14.37;;;12.87;;
16326;SDS011;34812;49.846;9.610;2023-02-23T00:33:27;16.13;;;14.37;;
16326;SDS011;34812;49.846;9.610;2023-02-23T00:34:30;13.93;;;12.50;;
16326;SDS011;34812;49.846;9.610;2023-02-23T00:35:31;16.37;;;13.73;;
16326;SDS011;34812;49.846;9.610;2023-02-23T00:36:35;13.87;;;12.47;;
16326;SDS011;34812;49.846;9.610;2023-02-23T00:37:36;16.67;;;13.07;;
16326;SDS011;34812;49.846;9.610;2023-02-23T00:38:39;12.90;;;11.60;;
16326;SDS011;34812;49.846;9.610;2023-02-23T00:39:40;14.13;;;12.70;;
16326;SDS011;34812;49.846;9.610;2023-02-23T00:40:42;12.70;;;11.60;;
16326;SDS011;34812;49.846;9.610;2023-02-23T00:41:45;13.07;;;10.90;;
16326;SDS011;34812;49.846;9.610;2023-02-23T00:42:47;12.63;;;11.27;;
16326;SDS011;34812;49.846;9.610;2023-02-23T00:43:49;12.63;;;11.37;;
16326;SDS011;34812;49.846;9.610;2023-02-23T00:44:53;13.90;;;12.33;;
16326;SDS011;34812;49.846;9.610;2023-02-23T00:45:54;15.30;;;12.27;;
16326;SDS011;34812;49.846;9.610;2023-02-23T00:46:56;13.50;;;11.43;;
16326;SDS011;34812;49.846;9.610;2023-02-23T00:47:57;13.10;;;11.73;;
16326;SDS011;34812;49.846;9.610;2023-02-23T00:48:58;13.50;;;11.43;;
16326;SDS011;34812;49.846;9.610;2023-02-23T00:49:59;14.83;;;12.63;;
16326;SDS011;34812;49.846;9.610;2023-02-23T00:51:02;12.87;;;11.40;;
16326;SDS011;34812;49.846;9.610;2023-02-23T00:52:05;12.50;;;11.30;;
16326;SDS011;34812;49.846;9.610;2023-02-23T00:53:07;12.57;;;11.27;;
16326;SDS011;34812;49.846;9.610;2023-02-23T00:54:09;13.60;;;12.20;;
16326;SDS011;34812;49.846;9.610;2023-02-23T00:55:12;13.33;;;11.93;;
16326;SDS011;34812;49.846;9.610;2023-02-23T00:56:14;13.50;;;12.30;;
16326;SDS011;34812;49.846;9.610;2023-02-23T00:57:16;12.70;;;11.50;;
16326;SDS011;34812;49.846;9.610;2023-02-23T00:58:17;13.40;;;12.00;;
16326;SDS011;34812;49.846;9.610;2023-02-23T00:59:18;13.43;;;11.63;;
16326;SDS011;34812;49.846;9.610;2023-02-23T01:00:19;12.73;;;11.07;;
16326;SDS011;34812;49.846;9.610;2023-02-23T01:01:21;11.57;;;10.37;;
16326;SDS011;34812;49.846;9.610;2023-02-23T01:02:24;12.77;;;11.43;;
16326;SDS011;34812;49.846;9.610;2023-02-23T01:03:29;12.47;;;11.07;;
16326;SDS011;34812;49.846;9.610;2023-02-23T01:04:30;12.50;;;11.27;;
16326;SDS011;34812;49.846;9.610;2023-02-23T01:05:32;12.83;;;10.27;;
16326;SDS011;34812;49.846;9.610;2023-02-23T01:06:34;11.70;;;9.77;;
16326;SDS011;34812;49.846;9.610;2023-02-23T01:07:38;11.53;;;10.33;;
16326;SDS011;34812;49.846;9.610;2023-02-23T01:08:40;11.77;;;10.03;;
16326;SDS011;34812;49.846;9.610;2023-02-23T01:09:44;10.57;;;9.57;;
16326;SDS011;34812;49.846;9.610;2023-02-23T01:10:45;10.30;;;9.20;;
16326;SDS011;34812;49.846;9.610;2023-02-23T01:11:52;11.40;;;9.07;;
16326;SDS011;34812;49.846;9.610;2023-02-23T01:12:55;10.03;;;9.03;;
16326;SDS011;34812;49.846;9.610;2023-02-23T01:13:57;11.97;;;9.40;;
16326;SDS011;34812;49.846;9.610;2023-02-23T01:14:59;9.97;;;8.97;;
16326;SDS011;34812;49.846;9.610;2023-02-23T01:16:05;10.30;;;8.87;;
16326;SDS011;34812;49.846;9.610;2023-02-23T01:17:06;11.20;;;9.30;;
16326;SDS011;34812;49.846;9.610;2023-02-23T01:18:10;10.33;;;9.37;;
16326;SDS011;34812;49.846;9.610;2023-02-23T01:19:11;11.03;;;9.03;;
16326;SDS011;34812;49.846;9.610;2023-02-23T01:20:15;12.43;;;9.43;;
16326;SDS011;34812;49.846;9.610;2023-02-23T01:21:18;12.30;;;9.30;;
16326;SDS011;34812;49.846;9.610;2023-02-23T01:22:22;10.40;;;9.33;;
16326;SDS011;34812;49.846;9.610;2023-02-23T01:23:24;9.17;;;8.27;;
16326;SDS011;34812;49.846;9.610;2023-02-23T01:24:26;10.13;;;8.87;;
16326;SDS011;34812;49.846;9.610;2023-02-23T01:25:27;13.67;;;9.50;;
16326;SDS011;34812;49.846;9.610;2023-02-23T01:26:30;9.60;;;8.27;;
16326;SDS011;34812;49.846;9.610;2023-02-23T01:27:35;11.87;;;8.13;;
16326;SDS011;34812;49.846;9.610;2023-02-23T01:28:36;10.53;;;9.43;;
16326;SDS011;34812;49.846;9.610;2023-02-23T01:29:37;10.63;;;9.37;;
16326;SDS011;34812;49.846;9.610;2023-02-23T01:30:40;11.53;;;9.73;;
16326;SDS011;34812;49.846;9.610;2023-02-23T01:31:42;9.80;;;8.80;;
16326;SDS011;34812;49.846;9.610;2023-02-23T01:32:49;10.17;;;9.03;;
16326;SDS011;34812;49.846;9.610;2023-02-23T01:33:51;10.40;;;9.40;;
16326;SDS011;34812;49.846;9.610;2023-02-23T01:34:53;11.83;;;9.60;;
16326;SDS011;34812;49.846;9.610;2023-02-23T01:35:57;11.23;;;10.00;;
16326;SDS011;34812;49.846;9.610;2023-02-23T01:37:00;10.43;;;9.30;;
16326;SDS011;34812;49.846;9.610;2023-02-23T01:38:00;11.57;;;10.37;;
16326;SDS011;34812;49.846;9.610;2023-02-23T01:39:04;13.13;;;10.43;;
16326;SDS011;34812;49.846;9.610;2023-02-23T01:40:09;12.53;;;11.23;;
16326;SDS011;34812;49.846;9.610;2023-02-23T01:41:14;14.83;;;11.40;;
16326;SDS011;34812;49.846;9.610;2023-02-23T01:42:15;12.27;;;10.90;;
16326;SDS011;34812;49.846;9.610;2023-02-23T01:43:20;12.60;;;11.30;;
16326;SDS011;34812;49.846;9.610;2023-02-23T01:46:17;11.87;;;10.27;;
16326;SDS011;34812;49.846;9.610;2023-02-23T01:47:18;11.87;;;10.70;;
16326;SDS011;34812;49.846;9.610;2023-02-23T01:48:20;13.07;;;10.57;;
16326;SDS011;34812;49.846;9.610;2023-02-23T01:49:24;11.97;;;10.87;;
16326;SDS011;34812;49.846;9.610;2023-02-23T01:50:29;11.23;;;10.13;;
16326;SDS011;34812;49.846;9.610;2023-02-23T01:51:39;12.67;;;10.30;;
16326;SDS011;34812;49.846;9.610;2023-02-23T01:52:42;13.40;;;11.07;;
16326;SDS011;34812;49.846;9.610;2023-02-23T01:53:47;10.70;;;9.70;;
16326;SDS011;34812;49.846;9.610;2023-02-23T01:54:54;11.33;;;10.23;;
16326;SDS011;34812;49.846;9.610;2023-02-23T01:55:57;11.00;;;9.77;;
16326;SDS011;34812;49.846;9.610;2023-02-23T01:57:10;10.50;;;9.50;;
16326;SDS011;34812;49.846;9.610;2023-02-23T01:58:14;11.77;;;10.57;;
16326;SDS011;34812;49.846;9.610;2023-02-23T01:59:18;10.67;;;9.60;;
16326;SDS011;34812;49.846;9.610;2023-02-23T02:00:19;10.70;;;9.70;;
16326;SDS011;34812;49.846;9.610;2023-02-23T02:01:24;11.23;;;10.13;;
16326;SDS011;34812;49.846;9.610;2023-02-23T02:02:26;11.83;;;10.37;;
16326;SDS011;34812;49.846;9.610;2023-02-23T02:03:33;10.37;;;9.27;;
16326;SDS011;34812;49.846;9.610;2023-02-23T02:04:40;11.30;;;9.83;;
16326;SDS011;34812;49.846;9.610;2023-02-23T02:05:43;12.33;;;9.60;;
16326;SDS011;34812;49.846;9.610;2023-02-23T02:06:47;10.17;;;9.23;;
16326;SDS011;34812;49.846;9.610;2023-02-23T02:07:53;10.20;;;9.30;;
16326;SDS011;34812;49.846;9.610;2023-02-23T02:08:58;11.53;;;10.37;;
16326;SDS011;34812;49.846;9.610;2023-02-23T02:10:08;10.13;;;9.17;;
16326;SDS011;34812;49.846;9.610;2023-02-23T02:11:39;12.90;;;9.43;;
16326;SDS011;34812;49.846;9.610;2023-02-23T02:12:44;10.03;;;9.10;;
16326;SDS011;34812;49.846;9.610;2023-02-23T02:13:51;10.17;;;9.27;;
16326;SDS011;34812;49.846;9.610;2023-02-23T02:14:57;12.60;;;10.30;;
16326;SDS011;34812;49.846;9.610;2023-02-23T02:16:07;9.90;;;9.00;;
16326;SDS011;34812;49.846;9.610;2023-02-23T02:17:30;9.90;;;9.00;;
16326;SDS011;34812;49.846;9.610;2023-02-23T02:18:41;10.10;;;9.20;;
16326;SDS011;34812;49.846;9.610;2023-02-23T02:20:09;10.03;;;9.13;;
16326;SDS011;34812;49.846;9.610;2023-02-23T02:21:37;10.40;;;9.30;;
16326;SDS011;34812;49.846;9.610;2023-02-23T02:24:37;11.17;;;9.50;;
16326;SDS011;34812;49.846;9.610;2023-02-23T02:26:15;10.40;;;9.40;;
16326;SDS011;34812;49.846;9.610;2023-02-23T02:27:33;10.93;;;9.83;;
16326;SDS011;34812;49.846;9.610;2023-02-23T02:29:03;13.43;;;10.20;;
16326;SDS011;34812;49.846;9.610;2023-02-23T02:30:45;10.50;;;9.43;;
16326;SDS011;34812;49.846;9.610;2023-02-23T02:35:03;10.37;;;9.37;;
16326;SDS011;34812;49.846;9.610;2023-02-23T02:36:50;10.97;;;9.87;;
16326;SDS011;34812;49.846;9.610;2023-02-23T02:38:22;11.00;;;9.50;;
16326;SDS011;34812;49.846;9.610;2023-02-23T02:39:33;11.20;;;9.17;;
16326;SDS011;34812;49.846;9.610;2023-02-23T02:40:44;13.27;;;9.97;;
16326;SDS011;34812;49.846;9.610;2023-02-23T02:41:55;9.37;;;8.57;;
16326;SDS011;34812;49.846;9.610;2023-02-23T02:43:05;10.60;;;9.00;;
16326;SDS011;34812;49.846;9.610;2023-02-23T02:44:13;11.10;;;8.90;;
16326;SDS011;34812;49.846;9.610;2023-02-23T02:45:21;9.67;;;8.33;;
16326;SDS011;34812;49.846;9.610;2023-02-23T02:46:27;9.60;;;8.60;;
16326;SDS011;34812;49.846;9.610;2023-02-23T02:47:32;10.93;;;9.40;;
16326;SDS011;34812;49.846;9.610;2023-02-23T02:48:38;9.33;;;8.43;;
16326;SDS011;34812;49.846;9.610;2023-02-23T02:49:47;9.47;;;8.67;;
16326;SDS011;34812;49.846;9.610;2023-02-23T02:50:52;10.03;;;8.77;;
16326;SDS011;34812;49.846;9.610;2023-02-23T02:51:59;11.07;;;9.27;;
16326;SDS011;34812;49.846;9.610;2023-02-23T02:53:06;10.17;;;8.73;;
16326;SDS011;34812;49.846;9.610;2023-02-23T02:54:12;9.97;;;9.07;;
16326;SDS011;34812;49.846;9.610;2023-02-23T02:55:20;11.57;;;8.67;;
16326;SDS011;34812;49.846;9.610;2023-02-23T02:56:24;9.07;;;8.07;;
16326;SDS011;34812;49.846;9.610;2023-02-23T02:57:28;9.50;;;8.27;;
16326;SDS011;34812;49.846;9.610;2023-02-23T02:58:32;8.93;;;8.03;;
16326;SDS011;34812;49.846;9.610;2023-02-23T02:59:41;9.63;;;8.20;;
16326;SDS011;34812;49.846;9.610;2023-02-23T03:01:05;8.83;;;7.93;;
16326;SDS011;34812;49.846;9.610;2023-02-23T03:02:26;8.57;;;7.73;;
16326;SDS011;34812;49.846;9.610;2023-02-23T03:03:46;8.93;;;8.07;;
16326;SDS011;34812;49.846;9.610;2023-02-23T03:05:11;8.33;;;7.53;;
16326;SDS011;34812;49.846;9.610;2023-02-23T03:06:32;11.10;;;8.67;;
16326;SDS011;34812;49.846;9.610;2023-02-23T03:07:56;9.73;;;8.20;;
16326;SDS011;34812;49.846;9.610;2023-02-23T03:09:25;8.87;;;8.07;;
16326;SDS011;34812;49.846;9.610;2023-02-23T03:10:54;11.40;;;8.37;;
16326;SDS011;34812;49.846;9.610;2023-02-23T03:12:22;9.43;;;8.43;;
16326;SDS011;34812;49.846;9.610;2023-02-23T03:13:51;9.20;;;8.40;;
16326;SDS011;34812;49.846;9.610;2023-02-23T03:15:23;8.13;;;7.33;;
16326;SDS011;34812;49.846;9.610;2023-02-23T03:16:55;10.80;;;8.07;;
16326;SDS011;34812;49.846;9.610;2023-02-23T03:18:27;9.40;;;8.20;;
16326;SDS011;34812;49.846;9.610;2023-02-23T03:19:59;8.73;;;7.93;;
16326;SDS011;34812;49.846;9.610;2023-02-23T03:21:26;9.10;;;8.30;;
16326;SDS011;34812;49.846;9.610;2023-02-23T03:22:52;9.07;;;8.20;;
16326;SDS011;34812;49.846;9.610;2023-02-23T03:24:20;8.87;;;8.00;;
16326;SDS011;34812;49.846;9.610;2023-02-23T03:25:48;9.50;;;8.57;;
16326;SDS011;34812;49.846;9.610;2023-02-23T03:27:14;10.63;;;7.97;;
16326;SDS011;34812;49.846;9.610;2023-02-23T03:28:40;8.67;;;7.87;;
16326;SDS011;34812;49.846;9.610;2023-02-23T03:30:10;10.83;;;8.20;;
16326;SDS011;34812;49.846;9.610;2023-02-23T03:31:38;9.07;;;8.17;;
16326;SDS011;34812;49.846;9.610;2023-02-23T03:33:05;9.53;;;8.53;;
16326;SDS011;34812;49.846;9.610;2023-02-23T03:34:30;9.10;;;8.20;;
16326;SDS011;34812;49.846;9.610;2023-02-23T03:36:00;10.90;;;7.70;;
16326;SDS011;34812;49.846;9.610;2023-02-23T03:37:25;8.40;;;7.60;;
16326;SDS011;34812;49.846;9.610;2023-02-23T03:38:48;9.63;;;7.60;;
16326;SDS011;34812;49.846;9.610;2023-02-23T03:40:15;10.03;;;7.53;;
16326;SDS011;34812;49.846;9.610;2023-02-23T03:41:39;8.20;;;7.40;;
16326;SDS011;34812;49.846;9.610;2023-02-23T03:43:01;8.77;;;7.97;;
16326;SDS011;34812;49.846;9.610;2023-02-23T03:44:26;8.70;;;7.80;;
16326;SDS011;34812;49.846;9.610;2023-02-23T03:45:49;9.87;;;8.57;;
16326;SDS011;34812;49.846;9.610;2023-02-23T03:47:09;10.47;;;8.37;;
16326;SDS011;34812;49.846;9.610;2023-02-23T03:48:32;8.80;;;8.00;;
16326;SDS011;34812;49.846;9.610;2023-02-23T03:49:54;10.40;;;7.43;;
16326;SDS011;34812;49.846;9.610;2023-02-23T03:51:16;12.50;;;8.10;;
16326;SDS011;34812;49.846;9.610;2023-02-23T03:52:39;9.30;;;8.10;;
16326;SDS011;34812;49.846;9.610;2023-02-23T03:54:06;9.03;;;8.10;;
16326;SDS011;34812;49.846;9.610;2023-02-23T03:55:31;9.03;;;8.03;;
16326;SDS011;34812;49.846;9.610;2023-02-23T03:56:54;9.20;;;8.30;;
16326;SDS011;34812;49.846;9.610;2023-02-23T03:58:17;9.60;;;8.67;;
16326;SDS011;34812;49.846;9.610;2023-02-23T03:59:42;9.40;;;8.43;;
16326;SDS011;34812;49.846;9.610;2023-02-23T04:01:13;9.53;;;8.40;;
16326;SDS011;34812;49.846;9.610;2023-02-23T04:02:34;11.07;;;8.70;;
16326;SDS011;34812;49.846;9.610;2023-02-23T04:03:55;11.60;;;8.20;;
16326;SDS011;34812;49.846;9.610;2023-02-23T04:05:17;9.17;;;8.37;;
16326;SDS011;34812;49.846;9.610;2023-02-23T04:06:39;9.10;;;8.10;;
16326;SDS011;34812;49.846;9.610;2023-02-23T04:08:02;7.90;;;7.20;;
16326;SDS011;34812;49.846;9.610;2023-02-23T04:09:26;9.73;;;8.17;;
16326;SDS011;34812;49.846;9.610;2023-02-23T04:10:45;10.87;;;8.53;;
16326;SDS011;34812;49.846;9.610;2023-02-23T04:12:10;9.80;;;8.67;;
16326;SDS011;34812;49.846;9.610;2023-02-23T04:13:33;8.43;;;7.63;;
16326;SDS011;34812;49.846;9.610;2023-02-23T04:14:38;12.30;;;8.67;;
16326;SDS011;34812;49.846;9.610;2023-02-23T04:15:46;8.83;;;7.97;;
16326;SDS011;34812;49.846;9.610;2023-02-23T04:16:50;10.03;;;9.13;;
16326;SDS011;34812;49.846;9.610;2023-02-23T04:17:52;8.93;;;8.03;;
16326;SDS011;34812;49.846;9.610;2023-02-23T04:18:54;9.97;;;8.50;;
16326;SDS011;34812;49.846;9.610;2023-02-23T04:19:55;9.07;;;8.17;;
16326;SDS011;34812;49.846;9.610;2023-02-23T04:20:57;9.83;;;8.53;;
16326;SDS011;34812;49.846;9.610;2023-02-23T04:21:59;8.97;;;8.07;;
16326;SDS011;34812;49.846;9.610;2023-02-23T04:23:02;9.40;;;8.37;;
16326;SDS011;34812;49.846;9.610;2023-02-23T04:24:03;10.23;;;9.23;;
16326;SDS011;34812;49.846;9.610;2023-02-23T04:25:06;11.20;;;8.50;;
16326;SDS011;34812;49.846;9.610;2023-02-23T04:26:08;9.13;;;8.33;;
16326;SDS011;34812;49.846;9.610;2023-02-23T04:27:10;10.10;;;9.10;;
16326;SDS011;34812;49.846;9.610;2023-02-23T04:28:11;8.83;;;7.93;;
16326;SDS011;34812;49.846;9.610;2023-02-23T04:29:13;9.73;;;8.77;;
16326;SDS011;34812;49.846;9.610;2023-02-23T04:30:14;9.87;;;8.87;;
16326;SDS011;34812;49.846;9.610;2023-02-23T04:31:16;10.17;;;8.63;;
16326;SDS011;34812;49.846;9.610;2023-02-23T04:32:18;10.70;;;9.70;;
16326;SDS011;34812;49.846;9.610;2023-02-23T04:33:20;9.63;;;8.73;;
16326;SDS011;34812;49.846;9.610;2023-02-23T04:34:23;9.63;;;8.63;;
16326;SDS011;34812;49.846;9.610;2023-02-23T04:35:24;10.73;;;9.40;;
16326;SDS011;34812;49.846;9.610;2023-02-23T04:36:27;10.83;;;8.33;;
16326;SDS011;34812;49.846;9.610;2023-02-23T04:37:29;10.27;;;9.37;;
16326;SDS011;34812;49.846;9.610;2023-02-23T04:38:30;10.33;;;9.33;;
16326;SDS011;34812;49.846;9.610;2023-02-23T04:39:32;9.77;;;8.50;;
16326;SDS011;34812;49.846;9.610;2023-02-23T04:40:34;11.10;;;9.37;;
16326;SDS011;34812;49.846;9.610;2023-02-23T04:41:36;9.53;;;8.73;;
16326;SDS011;34812;49.846;9.610;2023-02-23T04:42:37;12.30;;;9.37;;
16326;SDS011;34812;49.846;9.610;2023-02-23T04:43:39;10.00;;;8.67;;
16326;SDS011;34812;49.846;9.610;2023-02-23T04:44:40;10.27;;;9.27;;
16326;SDS011;34812;49.846;9.610;2023-02-23T04:45:42;10.33;;;9.27;;
16326;SDS011;34812;49.846;9.610;2023-02-23T04:46:43;9.83;;;8.83;;
16326;SDS011;34812;49.846;9.610;2023-02-23T04:47:45;11.40;;;9.43;;
16326;SDS011;34812;49.846;9.610;2023-02-23T04:48:46;10.70;;;9.57;;
16326;SDS011;34812;49.846;9.610;2023-02-23T04:49:48;11.73;;;10.50;;
16326;SDS011;34812;49.846;9.610;2023-02-23T04:50:50;11.57;;;9.83;;
16326;SDS011;34812;49.846;9.610;2023-02-23T04:51:52;10.50;;;9.50;;
16326;SDS011;34812;49.846;9.610;2023-02-23T04:52:53;11.30;;;9.67;;
16326;SDS011;34812;49.846;9.610;2023-02-23T04:53:55;10.23;;;9.20;;
16326;SDS011;34812;49.846;9.610;2023-02-23T04:54:56;10.30;;;9.20;;
16326;SDS011;34812;49.846;9.610;2023-02-23T04:56:00;12.20;;;9.83;;
16326;SDS011;34812;49.846;9.610;2023-02-23T04:57:02;10.10;;;9.10;;
16326;SDS011;34812;49.846;9.610;2023-02-23T04:58:04;12.47;;;10.23;;
16326;SDS011;34812;49.846;9.610;2023-02-23T04:59:05;11.07;;;9.90;;
16326;SDS011;34812;49.846;9.610;2023-02-23T05:00:07;10.77;;;9.73;;
16326;SDS011;34812;49.846;9.610;2023-02-23T05:01:09;9.43;;;8.63;;
16326;SDS011;34812;49.846;9.610;2023-02-23T05:02:11;9.97;;;8.97;;
16326;SDS011;34812;49.846;9.610;2023-02-23T05:03:12;11.23;;;9.57;;
16326;SDS011;34812;49.846;9.610;2023-02-23T05:04:16;12.80;;;10.07;;
16326;SDS011;34812;49.846;9.610;2023-02-23T05:05:17;10.47;;;9.37;;
16326;SDS011;34812;49.846;9.610;2023-02-23T05:06:20;10.23;;;9.23;;
16326;SDS011;34812;49.846;9.610;2023-02-23T05:07:21;10.13;;;8.83;;
16326;SDS011;34812;49.846;9.610;2023-02-23T05:08:23;12.03;;;8.80;;
16326;SDS011;34812;49.846;9.610;2023-02-23T05:09:24;9.97;;;8.30;;
16326;SDS011;34812;49.846;9.610;2023-02-23T05:10:26;12.20;;;10.43;;
16326;SDS011;34812;49.846;9.610;2023-02-23T05:11:28;10.43;;;9.37;;
16326;SDS011;34812;49.846;9.610;2023-02-23T05:12:30;11.10;;;10.00;;
16326;SDS011;34812;49.846;9.610;2023-02-23T05:13:31;10.83;;;9.53;;
16326;SDS011;34812;49.846;9.610;2023-02-23T05:14:33;9.67;;;8.77;;
16326;SDS011;34812;49.846;9.610;2023-02-23T05:15:34;10.87;;;9.77;;
16326;SDS011;34812;49.846;9.610;2023-02-23T05:16:36;9.73;;;8.67;;
16326;SDS011;34812;49.846;9.610;2023-02-23T05:17:37;10.93;;;9.83;;
16326;SDS011;34812;49.846;9.610;2023-02-23T05:18:41;13.00;;;9.73;;
16326;SDS011;34812;49.846;9.610;2023-02-23T05:19:42;10.57;;;9.57;;
16326;SDS011;34812;49.846;9.610;2023-02-23T05:20:43;9.87;;;8.97;;
16326;SDS011;34812;49.846;9.610;2023-02-23T05:21:44;10.17;;;9.27;;
16326;SDS011;34812;49.846;9.610;2023-02-23T05:22:46;9.57;;;8.67;;
16326;SDS011;34812;49.846;9.610;2023-02-23T05:23:47;11.03;;;9.43;;
16326;SDS011;34812;49.846;9.610;2023-02-23T05:24:49;10.37;;;9.47;;
16326;SDS011;34812;49.846;9.610;2023-02-23T05:25:50;11.80;;;10.70;;
16326;SDS011;34812;49.846;9.610;2023-02-23T05:26:53;11.30;;;10.20;;
16326;SDS011;34812;49.846;9.610;2023-02-23T05:27:54;10.23;;;9.17;;
16326;SDS011;34812;49.846;9.610;2023-02-23T05:28:55;11.33;;;10.33;;
16326;SDS011;34812;49.846;9.610;2023-02-23T05:29:56;11.07;;;9.97;;
16326;SDS011;34812;49.846;9.610;2023-02-23T05:30:58;11.13;;;10.00;;
16326;SDS011;34812;49.846;9.610;2023-02-23T05:31:59;10.73;;;9.73;;
16326;SDS011;34812;49.846;9.610;2023-02-23T05:33:01;11.80;;;10.50;;
16326;SDS011;34812;49.846;9.610;2023-02-23T05:34:02;11.90;;;10.70;;
16326;SDS011;34812;49.846;9.610;2023-02-23T05:35:04;11.07;;;10.00;;
16326;SDS011;34812;49.846;9.610;2023-02-23T05:36:06;14.27;;;12.97;;
16326;SDS011;34812;49.846;9.610;2023-02-23T05:37:09;12.17;;;10.97;;
16326;SDS011;34812;49.846;9.610;2023-02-23T05:38:10;12.40;;;10.87;;
16326;SDS011;34812;49.846;9.610;2023-02-23T05:39:11;12.80;;;11.53;;
16326;SDS011;34812;49.846;9.610;2023-02-23T05:40:12;12.67;;;11.17;;
16326;SDS011;34812;49.846;9.610;2023-02-23T05:41:15;16.07;;;14.57;;
16326;SDS011;34812;49.846;9.610;2023-02-23T05:42:19;16.10;;;14.40;;
16326;SDS011;34812;49.846;9.610;2023-02-23T05:43:21;15.73;;;14.07;;
16326;SDS011;34812;49.846;9.610;2023-02-23T05:44:21;17.27;;;12.80;;
16326;SDS011;34812;49.846;9.610;2023-02-23T05:45:24;15.07;;;13.47;;
16326;SDS011;34812;49.846;9.610;2023-02-23T05:46:25;15.27;;;13.63;;
16326;SDS011;34812;49.846;9.610;2023-02-23T05:47:28;17.17;;;14.20;;
16326;SDS011;34812;49.846;9.610;2023-02-23T05:48:30;18.07;;;16.47;;
16326;SDS011;34812;49.846;9.610;2023-02-23T05:49:33;18.30;;;16.40;;
16326;SDS011;34812;49.846;9.610;2023-02-23T05:50:34;21.87;;;19.80;;
16326;SDS011;34812;49.846;9.610;2023-02-23T05:51:36;23.17;;;20.83;;
16326;SDS011;34812;49.846;9.610;2023-02-23T05:52:38;20.00;;;18.00;;
16326;SDS011;34812;49.846;9.610;2023-02-23T05:53:41;18.50;;;16.67;;
16326;SDS011;34812;49.846;9.610;2023-02-23T05:54:42;18.30;;;16.60;;
16326;SDS011;34812;49.846;9.610;2023-02-23T05:55:45;18.33;;;16.50;;
16326;SDS011;34812;49.846;9.610;2023-02-23T05:56:46;17.77;;;15.20;;
16326;SDS011;34812;49.846;9.610;2023-02-23T05:57:49;15.33;;;13.83;;
16326;SDS011;34812;49.846;9.610;2023-02-23T05:58:51;15.87;;;14.27;;
16326;SDS011;34812;49.846;9.610;2023-02-23T05:59:54;14.23;;;12.93;;
16326;SDS011;34812;49.846;9.610;2023-02-23T06:00:55;17.53;;;13.67;;
16326;SDS011;34812;49.846;9.610;2023-02-23T06:01:56;16.40;;;13.83;;
16326;SDS011;34812;49.846;9.610;2023-02-23T06:02:57;14.77;;;13.30;;
16326;SDS011;34812;49.846;9.610;2023-02-23T06:03:59;16.03;;;14.33;;
16326;SDS011;34812;49.846;9.610;2023-02-23T06:05:00;17.00;;;15.27;;
16326;SDS011;34812;49.846;9.610;2023-02-23T06:06:02;17.20;;;15.43;;
16326;SDS011;34812;49.846;9.610;2023-02-23T06:07:03;15.23;;;13.80;;
16326;SDS011;34812;49.846;9.610;2023-02-23T06:08:05;15.43;;;14.07;;
16326;SDS011;34812;49.846;9.610;2023-02-23T06:09:05;16.57;;;14.87;;
16326;SDS011;34812;49.846;9.610;2023-02-23T06:10:08;18.37;;;15.23;;
16326;SDS011;34812;49.846;9.610;2023-02-23T06:11:10;16.90;;;15.17;;
16326;SDS011;34812;49.846;9.610;2023-02-23T06:12:12;17.93;;;15.47;;
16326;SDS011;34812;49.846;9.610;2023-02-23T06:13:14;17.30;;;15.70;;
16326;SDS011;34812;49.846;9.610;2023-02-23T06:14:16;18.53;;;15.60;;
16326;SDS011;34812;49.846;9.610;2023-02-23T06:15:17;18.57;;;15.73;;
16326;SDS011;34812;49.846;9.610;2023-02-23T06:16:18;15.90;;;14.17;;
16326;SDS011;34812;49.846;9.610;2023-02-23T06:17:20;17.40;;;15.60;;
16326;SDS011;34812;49.846;9.610;2023-02-23T06:18:21;17.10;;;15.30;;
16326;SDS011;34812;49.846;9.610;2023-02-23T06:19:22;17.13;;;15.30;;
16326;SDS011;34812;49.846;9.610;2023-02-23T06:20:24;17.20;;;15.40;;
16326;SDS011;34812;49.846;9.610;2023-02-23T06:21:25;19.07;;;16.17;;
16326;SDS011;34812;49.846;9.610;2023-02-23T06:22:26;17.10;;;15.20;;
16326;SDS011;34812;49.846;9.610;2023-02-23T06:23:27;19.03;;;15.47;;
16326;SDS011;34812;49.846;9.610;2023-02-23T06:24:30;17.53;;;15.73;;
16326;SDS011;34812;49.846;9.610;2023-02-23T06:25:31;17.53;;;15.00;;
16326;SDS011;34812;49.846;9.610;2023-02-23T06:26:33;20.10;;;15.53;;
16326;SDS011;34812;49.846;9.610;2023-02-23T06:27:34;17.23;;;15.43;;
16326;SDS011;34812;49.846;9.610;2023-02-23T06:28:37;17.87;;;16.17;;
16326;SDS011;34812;49.846;9.610;2023-02-23T06:29:38;17.50;;;15.73;;
16326;SDS011;34812;49.846;9.610;2023-02-23T06:30:40;18.83;;;16.83;;
16326;SDS011;34812;49.846;9.610;2023-02-23T06:31:41;17.13;;;15.40;;
16326;SDS011;34812;49.846;9.610;2023-02-23T06:32:43;16.93;;;15.30;;
16326;SDS011;34812;49.846;9.610;2023-02-23T06:33:48;18.83;;;15.80;;
16326;SDS011;34812;49.846;9.610;2023-02-23T06:34:50;16.77;;;15.20;;
16326;SDS011;34812;49.846;9.610;2023-02-23T06:35:51;18.97;;;16.30;;
16326;SDS011;34812;49.846;9.610;2023-02-23T06:36:53;17.30;;;15.40;;
16326;SDS011;34812;49.846;9.610;2023-02-23T06:37:54;18.53;;;16.37;;
16326;SDS011;34812;49.846;9.610;2023-02-23T06:38:56;18.27;;;15.73;;
16326;SDS011;34812;49.846;9.610;2023-02-23T06:39:58;19.23;;;16.17;;
16326;SDS011;34812;49.846;9.610;2023-02-23T06:40:59;17.70;;;16.00;;
16326;SDS011;34812;49.846;9.610;2023-02-23T06:42:06;22.03;;;16.37;;
16326;SDS011;34812;49.846;9.610;2023-02-23T06:43:07;16.93;;;15.20;;